Accokeek, Maryland
Current Conditions -  °F | °C
As of 2:58 AM on Friday 24 Oct 2014 (Local Time) from KDAA Reporting Station
Clear Clear  
Wind Chill: 55°   Ceiling: Unl
Heat Index: 55°   Visibility: 10mi
Dew Point: 41°   Wind: 9mph
Humidity: 59%   Direction: 290°WNW
Pressure: 29.93"   Gusts: NA
Location:  38.67°N, 77.03°W
Report Text: KDAA 240658Z AUTO 29008KT 10SM CLR 13/05 A2993 RMK AO2 SLP138 T01290050
Loading
Personal Weather Stations






























Interactive Weather Map
Tropical Storm Tracking
New forecast layout! Learn more

10-Day Weather Forecast

Advertisements
Track Severe Weather on mobile